sensor_id;sensor_type;location;lat;lon;timestamp;pressure;altitude;pressure_sealevel;temperature;humidity
57102;BME280;42982;54.558;18.508;2023-08-07T00:00:05;98759.63;;;17.02;95.25
57102;BME280;42982;54.558;18.508;2023-08-07T00:01:10;98763.94;;;17.03;95.22
57102;BME280;42982;54.558;18.508;2023-08-07T00:02:11;98760.78;;;17.01;95.29
57102;BME280;42982;54.558;18.508;2023-08-07T00:03:15;98759.63;;;17.02;95.32
57102;BME280;42982;54.558;18.508;2023-08-07T00:04:19;98753.47;;;17.05;95.29
57102;BME280;42982;54.558;18.508;2023-08-07T00:05:21;98758.13;;;17.04;95.16
57102;BME280;42982;54.558;18.508;2023-08-07T00:06:23;98745.66;;;17.00;94.69
57102;BME280;42982;54.558;18.508;2023-08-07T00:07:25;98734.38;;;16.98;94.61
57102;BME280;42982;54.558;18.508;2023-08-07T00:08:26;98743.25;;;16.95;94.56
57102;BME280;42982;54.558;18.508;2023-08-07T00:09:28;98739.75;;;16.94;94.52
57102;BME280;42982;54.558;18.508;2023-08-07T00:10:32;98728.91;;;16.94;94.48
57102;BME280;42982;54.558;18.508;2023-08-07T00:11:36;98726.13;;;16.90;94.17
57102;BME280;42982;54.558;18.508;2023-08-07T00:12:37;98735.47;;;16.93;94.10
57102;BME280;42982;54.558;18.508;2023-08-07T00:13:42;98730.78;;;16.90;94.31
57102;BME280;42982;54.558;18.508;2023-08-07T00:14:47;98730.84;;;16.94;94.25
57102;BME280;42982;54.558;18.508;2023-08-07T00:15:51;98737.38;;;16.92;94.52
57102;BME280;42982;54.558;18.508;2023-08-07T00:16:53;98735.53;;;16.97;94.39
57102;BME280;42982;54.558;18.508;2023-08-07T00:17:56;98732.81;;;16.97;94.56
57102;BME280;42982;54.558;18.508;2023-08-07T00:18:58;98738.66;;;16.99;94.57
57102;BME280;42982;54.558;18.508;2023-08-07T00:20:03;98734.81;;;17.00;94.20
57102;BME280;42982;54.558;18.508;2023-08-07T00:21:06;98740.19;;;16.96;94.07
57102;BME280;42982;54.558;18.508;2023-08-07T00:22:08;98737.88;;;16.98;93.84
57102;BME280;42982;54.558;18.508;2023-08-07T00:23:10;98742.53;;;16.98;94.10
57102;BME280;42982;54.558;18.508;2023-08-07T00:24:11;98758.09;;;17.01;93.91
57102;BME280;42982;54.558;18.508;2023-08-07T00:25:13;98750.56;;;16.90;92.97
57102;BME280;42982;54.558;18.508;2023-08-07T00:26:15;98757.44;;;16.84;92.69
57102;BME280;42982;54.558;18.508;2023-08-07T00:27:17;98764.09;;;16.87;92.67
57102;BME280;42982;54.558;18.508;2023-08-07T00:28:19;98759.09;;;16.92;92.83
57102;BME280;42982;54.558;18.508;2023-08-07T00:29:20;98753.38;;;16.98;92.83
57102;BME280;42982;54.558;18.508;2023-08-07T00:30:22;98755.38;;;17.01;92.58
57102;BME280;42982;54.558;18.508;2023-08-07T00:31:24;98754.22;;;17.02;92.39
57102;BME280;42982;54.558;18.508;2023-08-07T00:32:26;98750.38;;;17.03;92.16
57102;BME280;42982;54.558;18.508;2023-08-07T00:33:28;98746.06;;;17.02;91.79
57102;BME280;42982;54.558;18.508;2023-08-07T00:34:30;98751.03;;;16.96;91.22
57102;BME280;42982;54.558;18.508;2023-08-07T00:35:32;98746.69;;;16.91;90.86
57102;BME280;42982;54.558;18.508;2023-08-07T00:36:37;98745.44;;;16.85;90.59
57102;BME280;42982;54.558;18.508;2023-08-07T00:37:38;98750.03;;;16.81;90.78
57102;BME280;42982;54.558;18.508;2023-08-07T00:38:40;98744.56;;;16.78;90.69
57102;BME280;42982;54.558;18.508;2023-08-07T00:39:41;98747.63;;;16.76;90.85
57102;BME280;42982;54.558;18.508;2023-08-07T00:40:42;98747.63;;;16.76;90.62
57102;BME280;42982;54.558;18.508;2023-08-07T00:41:45;98747.97;;;16.75;90.49
57102;BME280;42982;54.558;18.508;2023-08-07T00:42:46;98759.16;;;16.73;90.06
57102;BME280;42982;54.558;18.508;2023-08-07T00:43:49;98755.63;;;16.69;89.89
57102;BME280;42982;54.558;18.508;2023-08-07T00:44:53;98749.75;;;16.67;89.97
57102;BME280;42982;54.558;18.508;2023-08-07T00:45:55;98755.91;;;16.64;89.73
57102;BME280;42982;54.558;18.508;2023-08-07T00:46:59;98748.94;;;16.63;89.94
57102;BME280;42982;54.558;18.508;2023-08-07T00:48:00;98749.34;;;16.65;90.10
57102;BME280;42982;54.558;18.508;2023-08-07T00:49:07;98752.47;;;16.67;90.03
57102;BME280;42982;54.558;18.508;2023-08-07T00:50:10;98747.81;;;16.67;90.05
57102;BME280;42982;54.558;18.508;2023-08-07T00:51:18;98749.34;;;16.65;89.91
57102;BME280;42982;54.558;18.508;2023-08-07T00:52:24;98747.38;;;16.62;89.64
57102;BME280;42982;54.558;18.508;2023-08-07T00:53:27;98738.38;;;16.58;89.64
57102;BME280;42982;54.558;18.508;2023-08-07T00:54:29;98742.66;;;16.59;89.48
57102;BME280;42982;54.558;18.508;2023-08-07T00:55:31;98742.25;;;16.57;89.74
57102;BME280;42982;54.558;18.508;2023-08-07T00:56:33;98745.38;;;16.59;89.68
57102;BME280;42982;54.558;18.508;2023-08-07T00:57:34;98744.22;;;16.60;89.58
57102;BME280;42982;54.558;18.508;2023-08-07T00:58:40;98743.13;;;16.64;89.58
57102;BME280;42982;54.558;18.508;2023-08-07T00:59:44;98739.63;;;16.64;89.16
57102;BME280;42982;54.558;18.508;2023-08-07T01:00:48;98733.38;;;16.60;88.82
57102;BME280;42982;54.558;18.508;2023-08-07T01:01:50;98727.13;;;16.56;88.72
57102;BME280;42982;54.558;18.508;2023-08-07T01:02:52;98728.19;;;16.51;88.70
57102;BME280;42982;54.558;18.508;2023-08-07T01:03:55;98725.47;;;16.51;88.77
57102;BME280;42982;54.558;18.508;2023-08-07T01:04:58;98719.22;;;16.47;88.19
57102;BME280;42982;54.558;18.508;2023-08-07T01:06:04;98715.28;;;16.44;88.47
57102;BME280;42982;54.558;18.508;2023-08-07T01:07:06;98714.13;;;16.45;88.49
57102;BME280;42982;54.558;18.508;2023-08-07T01:08:08;98716.13;;;16.49;88.45
57102;BME280;42982;54.558;18.508;2023-08-07T01:09:12;98719.28;;;16.51;88.69
57102;BME280;42982;54.558;18.508;2023-08-07T01:10:16;98721.63;;;16.52;88.52
57102;BME280;42982;54.558;18.508;2023-08-07T01:11:39;98721.56;;;16.49;88.25
57102;BME280;42982;54.558;18.508;2023-08-07T01:12:54;98726.16;;;16.44;88.09
57102;BME280;42982;54.558;18.508;2023-08-07T01:15:37;98728.56;;;16.50;88.11
57102;BME280;42982;54.558;18.508;2023-08-07T01:16:47;98714.28;;;16.53;88.07
57102;BME280;42982;54.558;18.508;2023-08-07T01:17:53;98721.97;;;16.51;87.57
57102;BME280;42982;54.558;18.508;2023-08-07T01:18:57;98715.41;;;16.52;87.51
57102;BME280;42982;54.558;18.508;2023-08-07T01:20:03;98722.03;;;16.54;87.89
57102;BME280;42982;54.558;18.508;2023-08-07T01:21:06;98718.53;;;16.54;87.74
57102;BME280;42982;54.558;18.508;2023-08-07T01:22:12;98715.34;;;16.48;87.24
57102;BME280;42982;54.558;18.508;2023-08-07T01:23:17;98709.88;;;16.44;87.48
57102;BME280;42982;54.558;18.508;2023-08-07T01:24:18;98709.09;;;16.44;87.64
57102;BME280;42982;54.558;18.508;2023-08-07T01:25:20;98700.56;;;16.45;87.44
57102;BME280;42982;54.558;18.508;2023-08-07T01:26:22;98700.19;;;16.43;87.59
57102;BME280;42982;54.558;18.508;2023-08-07T01:29:23;98696.69;;;16.43;87.64
57102;BME280;42982;54.558;18.508;2023-08-07T01:30:36;98703.19;;;16.38;87.46
57102;BME280;42982;54.558;18.508;2023-08-07T01:31:44;98694.22;;;16.34;87.08
57102;BME280;42982;54.558;18.508;2023-08-07T01:33:10;98690.22;;;16.28;87.07
57102;BME280;42982;54.558;18.508;2023-08-07T01:34:17;98692.22;;;16.31;87.34
57102;BME280;42982;54.558;18.508;2023-08-07T01:35:22;98687.13;;;16.30;87.34
57102;BME280;42982;54.558;18.508;2023-08-07T01:36:28;98678.59;;;16.28;87.58
57102;BME280;42982;54.558;18.508;2023-08-07T01:37:34;98687.09;;;16.26;87.71
57102;BME280;42982;54.558;18.508;2023-08-07T01:38:36;98683.53;;;16.22;87.57
57102;BME280;42982;54.558;18.508;2023-08-07T01:39:41;98684.69;;;16.21;87.81
57102;BME280;42982;54.558;18.508;2023-08-07T01:40:47;98680.41;;;16.20;88.06
57102;BME280;42982;54.558;18.508;2023-08-07T01:41:51;98673.72;;;16.14;88.06
57102;BME280;42982;54.558;18.508;2023-08-07T01:42:56;98667.88;;;16.12;88.06
57102;BME280;42982;54.558;18.508;2023-08-07T01:43:59;98671.72;;;16.11;88.27
57102;BME280;42982;54.558;18.508;2023-08-07T01:45:01;98669.00;;;16.11;88.35
57102;BME280;42982;54.558;18.508;2023-08-07T01:46:04;98663.66;;;16.14;88.56
57102;BME280;42982;54.558;18.508;2023-08-07T01:47:07;98673.78;;;16.17;88.58
57102;BME280;42982;54.558;18.508;2023-08-07T01:48:09;98676.13;;;16.19;88.62
57102;BME280;42982;54.558;18.508;2023-08-07T01:49:11;98678.41;;;16.17;88.49
57102;BME280;42982;54.558;18.508;2023-08-07T01:50:12;98679.56;;;16.16;88.34
57102;BME280;42982;54.558;18.508;2023-08-07T01:51:17;98685.28;;;16.11;88.09
57102;BME280;42982;54.558;18.508;2023-08-07T01:52:22;98680.56;;;16.08;88.28
57102;BME280;42982;54.558;18.508;2023-08-07T01:53:24;98678.19;;;16.03;88.19
57102;BME280;42982;54.558;18.508;2023-08-07T01:54:26;98672.75;;;16.03;88.52
57102;BME280;42982;54.558;18.508;2023-08-07T01:55:27;98680.06;;;15.98;88.73
57102;BME280;42982;54.558;18.508;2023-08-07T01:56:29;98671.81;;;15.95;88.86
57102;BME280;42982;54.558;18.508;2023-08-07T01:57:31;98677.19;;;15.91;89.14
57102;BME280;42982;54.558;18.508;2023-08-07T01:58:34;98670.66;;;15.92;89.09
57102;BME280;42982;54.558;18.508;2023-08-07T01:59:36;98675.69;;;15.94;89.41
57102;BME280;42982;54.558;18.508;2023-08-07T02:00:40;98681.88;;;15.94;89.32
57102;BME280;42982;54.558;18.508;2023-08-07T02:01:46;98674.97;;;15.97;89.71
57102;BME280;42982;54.558;18.508;2023-08-07T02:02:47;98674.91;;;15.93;89.90
57102;BME280;42982;54.558;18.508;2023-08-07T02:03:48;98678.13;;;15.99;89.70
57102;BME280;42982;54.558;18.508;2023-08-07T02:04:52;98676.19;;;15.99;89.80
57102;BME280;42982;54.558;18.508;2023-08-07T02:05:57;98676.19;;;15.99;90.01
57102;BME280;42982;54.558;18.508;2023-08-07T02:07:05;98672.69;;;15.99;89.66
57102;BME280;42982;54.558;18.508;2023-08-07T02:08:07;98676.19;;;15.99;89.71
57102;BME280;42982;54.558;18.508;2023-08-07T02:09:09;98671.44;;;15.93;89.73
57102;BME280;42982;54.558;18.508;2023-08-07T02:10:10;98672.50;;;15.88;89.89
57102;BME280;42982;54.558;18.508;2023-08-07T02:11:14;98675.63;;;15.90;89.87
57102;BME280;42982;54.558;18.508;2023-08-07T02:12:16;98681.41;;;15.89;90.04
57102;BME280;42982;54.558;18.508;2023-08-07T02:13:20;98671.38;;;15.89;90.21
57102;BME280;42982;54.558;18.508;2023-08-07T02:14:22;98674.41;;;15.88;90.10
57102;BME280;42982;54.558;18.508;2023-08-07T02:15:26;98671.72;;;15.88;90.19
57102;BME280;42982;54.558;18.508;2023-08-07T02:16:30;98671.38;;;15.89;90.15
57102;BME280;42982;54.558;18.508;2023-08-07T02:17:34;98666.34;;;15.91;90.06
57102;BME280;42982;54.558;18.508;2023-08-07T02:18:36;98662.50;;;15.92;90.01
57102;BME280;42982;54.558;18.508;2023-08-07T02:19:41;98660.59;;;15.93;90.15
57102;BME280;42982;54.558;18.508;2023-08-07T02:20:43;98653.94;;;15.90;90.07
57102;BME280;42982;54.558;18.508;2023-08-07T02:21:47;98651.69;;;15.92;90.00
57102;BME280;42982;54.558;18.508;2023-08-07T02:22:49;98647.03;;;15.93;90.18
57102;BME280;42982;54.558;18.508;2023-08-07T02:23:50;98657.88;;;15.93;90.10
57102;BME280;42982;54.558;18.508;2023-08-07T02:24:52;98663.34;;;15.96;90.14
57102;BME280;42982;54.558;18.508;2023-08-07T02:25:53;98658.38;;;15.98;90.18
57102;BME280;42982;54.558;18.508;2023-08-07T02:26:58;98651.78;;;15.99;89.96
57102;BME280;42982;54.558;18.508;2023-08-07T02:28:02;98652.22;;;16.02;89.85
57102;BME280;42982;54.558;18.508;2023-08-07T02:29:04;98651.78;;;15.99;89.65
57102;BME280;42982;54.558;18.508;2023-08-07T02:30:08;98651.00;;;15.99;89.73
57102;BME280;42982;54.558;18.508;2023-08-07T02:31:13;98654.13;;;16.01;89.39
57102;BME280;42982;54.558;18.508;2023-08-07T02:32:15;98658.78;;;16.01;89.19
57102;BME280;42982;54.558;18.508;2023-08-07T02:33:17;98661.06;;;15.98;89.12
57102;BME280;42982;54.558;18.508;2023-08-07T02:34:19;98662.50;;;15.92;88.85
57102;BME280;42982;54.558;18.508;2023-08-07T02:35:20;98659.38;;;15.90;88.90
57102;BME280;42982;54.558;18.508;2023-08-07T02:36:22;98673.28;;;15.89;89.20
57102;BME280;42982;54.558;18.508;2023-08-07T02:37:24;98669.44;;;15.90;89.62
57102;BME280;42982;54.558;18.508;2023-08-07T02:38:26;98665.94;;;15.89;89.44
57102;BME280;42982;54.558;18.508;2023-08-07T02:39:32;98679.06;;;15.87;89.52
57102;BME280;42982;54.558;18.508;2023-08-07T02:40:39;98668.59;;;15.86;89.16
57102;BME280;42982;54.558;18.508;2023-08-07T02:41:42;98676.72;;;15.86;89.55
57102;BME280;42982;54.558;18.508;2023-08-07T02:42:46;98671.66;;;15.84;89.60
57102;BME280;42982;54.558;18.508;2023-08-07T02:43:47;98667.78;;;15.85;89.51
57102;BME280;42982;54.558;18.508;2023-08-07T02:44:49;98666.59;;;15.83;89.84
57102;BME280;42982;54.558;18.508;2023-08-07T02:45:51;98670.03;;;15.80;90.00
57102;BME280;42982;54.558;18.508;2023-08-07T02:46:55;98667.31;;;15.80;89.88
57102;BME280;42982;54.558;18.508;2023-08-07T02:47:56;98676.22;;;15.80;89.94
57102;BME280;42982;54.558;18.508;2023-08-07T02:49:02;98678.50;;;15.78;90.27
57102;BME280;42982;54.558;18.508;2023-08-07T02:50:04;98684.28;;;15.77;90.30
57102;BME280;42982;54.558;18.508;2023-08-07T02:51:06;98691.56;;;15.72;90.06
57102;BME280;42982;54.558;18.508;2023-08-07T02:52:08;98691.91;;;15.71;90.32
57102;BME280;42982;54.558;18.508;2023-08-07T02:53:12;98683.78;;;15.71;90.49
57102;BME280;42982;54.558;18.508;2023-08-07T02:54:14;98686.91;;;15.73;90.58
57102;BME280;42982;54.558;18.508;2023-08-07T02:55:16;98690.06;;;15.75;90.50
57102;BME280;42982;54.558;18.508;2023-08-07T02:56:17;98695.47;;;15.75;90.83
57102;BME280;42982;54.558;18.508;2023-08-07T02:57:22;98706.31;;;15.75;90.58
57102;BME280;42982;54.558;18.508;2023-08-07T02:58:23;98697.75;;;15.73;90.41
57102;BME280;42982;54.558;18.508;2023-08-07T02:59:25;98697.75;;;15.73;90.88
57102;BME280;42982;54.558;18.508;2023-08-07T03:00:29;98698.19;;;15.75;90.67
57102;BME280;42982;54.558;18.508;2023-08-07T03:01:35;98688.84;;;15.72;90.92
57102;BME280;42982;54.558;18.508;2023-08-07T03:02:36;98692.69;;;15.71;90.74
57102;BME280;42982;54.558;18.508;2023-08-07T03:03:37;98691.16;;;15.70;90.99
57102;BME280;42982;54.558;18.508;2023-08-07T03:04:39;98687.72;;;15.73;91.09
57102;BME280;42982;54.558;18.508;2023-08-07T03:05:50;98700.91;;;15.75;91.04
57102;BME280;42982;54.558;18.508;2023-08-07T03:06:54;98692.75;;;15.75;91.02
57102;BME280;42982;54.558;18.508;2023-08-07T03:07:56;98696.63;;;15.74;90.90
57102;BME280;42982;54.558;18.508;2023-08-07T03:09:02;98693.47;;;15.72;90.98
57102;BME280;42982;54.558;18.508;2023-08-07T03:10:07;98699.69;;;15.72;90.85
57102;BME280;42982;54.558;18.508;2023-08-07T03:11:09;98696.63;;;15.74;91.11
57102;BME280;42982;54.558;18.508;2023-08-07T03:12:10;98702.03;;;15.74;91.17
57102;BME280;42982;54.558;18.508;2023-08-07T03:13:12;98715.59;;;15.74;91.04
57102;BME280;42982;54.558;18.508;2023-08-07T03:14:14;98708.97;;;15.71;90.57
57102;BME280;42982;54.558;18.508;2023-08-07T03:15:15;98712.44;;;15.72;90.78
57102;BME280;42982;54.558;18.508;2023-08-07T03:16:17;98705.88;;;15.73;90.82
57102;BME280;42982;54.558;18.508;2023-08-07T03:17:24;98710.97;;;15.74;91.13
57102;BME280;42982;54.558;18.508;2023-08-07T03:18:26;98709.47;;;15.77;91.24
57102;BME280;42982;54.558;18.508;2023-08-07T03:19:30;98709.88;;;15.79;91.00
57102;BME280;42982;54.558;18.508;2023-08-07T03:20:31;98713.44;;;15.83;91.01
57102;BME280;42982;54.558;18.508;2023-08-07T03:21:34;98716.56;;;15.85;91.18
57102;BME280;42982;54.558;18.508;2023-08-07T03:22:35;98712.28;;;15.84;90.71
57102;BME280;42982;54.558;18.508;2023-08-07T03:23:37;98709.25;;;15.86;90.84
57102;BME280;42982;54.558;18.508;2023-08-07T03:24:40;98703.44;;;15.87;90.81
57102;BME280;42982;54.558;18.508;2023-08-07T03:25:42;98704.22;;;15.88;90.81
57102;BME280;42982;54.558;18.508;2023-08-07T03:26:43;98705.78;;;15.89;90.34
57102;BME280;42982;54.558;18.508;2023-08-07T03:27:48;98699.66;;;15.92;90.80
57102;BME280;42982;54.558;18.508;2023-08-07T03:28:51;98700.47;;;15.92;90.42
57102;BME280;42982;54.558;18.508;2023-08-07T03:29:53;98699.38;;;15.97;90.54
57102;BME280;42982;54.558;18.508;2023-08-07T03:31:01;98694.38;;;15.99;90.45
57102;BME280;42982;54.558;18.508;2023-08-07T03:32:04;98701.41;;;16.04;90.53
57102;BME280;42982;54.558;18.508;2023-08-07T03:33:07;98692.16;;;16.05;90.16
57102;BME280;42982;54.558;18.508;2023-08-07T03:34:09;98685.59;;;16.06;90.04
57102;BME280;42982;54.558;18.508;2023-08-07T03:35:12;98681.31;;;16.05;89.72
57102;BME280;42982;54.558;18.508;2023-08-07T03:36:15;98681.72;;;16.07;89.83
57102;BME280;42982;54.558;18.508;2023-08-07T03:37:19;98683.72;;;16.10;90.03
57102;BME280;42982;54.558;18.508;2023-08-07T03:38:21;98689.91;;;16.10;89.65
57102;BME280;42982;54.558;18.508;2023-08-07T03:39:26;98694.63;;;16.13;89.37
57102;BME280;42982;54.558;18.508;2023-08-07T03:40:27;98683.72;;;16.10;88.87
57102;BME280;42982;54.558;18.508;2023-08-07T03:41:29;98693.00;;;16.09;88.64
57102;BME280;42982;54.558;18.508;2023-08-07T03:42:32;98697.59;;;16.05;88.43
57102;BME280;42982;54.558;18.508;2023-08-07T03:43:34;98705.72;;;16.05;88.44
57102;BME280;42982;54.558;18.508;2023-08-07T03:44:39;98697.50;;;16.01;88.36
57102;BME280;42982;54.558;18.508;2023-08-07T03:45:54;98704.06;;;16.00;88.18
57102;BME280;42982;54.558;18.508;2023-08-07T03:46:55;98704.44;;;15.98;88.28
57102;BME280;42982;54.558;18.508;2023-08-07T03:47:59;98709.44;;;15.96;88.28
57102;BME280;42982;54.558;18.508;2023-08-07T03:49:00;98712.84;;;15.93;88.07
57102;BME280;42982;54.558;18.508;2023-08-07T03:50:04;98720.28;;;15.96;88.53
57102;BME280;42982;54.558;18.508;2023-08-07T03:51:09;98731.56;;;15.98;88.15
57102;BME280;42982;54.558;18.508;2023-08-07T03:52:21;98735.38;;;15.97;88.46
57102;BME280;42982;54.558;18.508;2023-08-07T03:53:25;98742.41;;;15.98;88.33
57102;BME280;42982;54.558;18.508;2023-08-07T03:54:29;98754.78;;;15.99;88.19
57102;BME280;42982;54.558;18.508;2023-08-07T03:55:34;98755.44;;;15.93;87.83
57102;BME280;42982;54.558;18.508;2023-08-07T03:56:35;98734.47;;;15.90;87.92
57102;BME280;42982;54.558;18.508;2023-08-07T03:57:42;98749.97;;;15.89;88.11
57102;BME280;42982;54.558;18.508;2023-08-07T03:58:44;98746.09;;;15.90;87.99
57102;BME280;42982;54.558;18.508;2023-08-07T03:59:47;98736.09;;;15.94;88.12
57102;BME280;42982;54.558;18.508;2023-08-07T04:00:51;98731.56;;;15.98;88.40
57102;BME280;42982;54.558;18.508;2023-08-07T04:01:53;98723.41;;;15.98;88.30
57102;BME280;42982;54.558;18.508;2023-08-07T04:02:58;98730.69;;;15.94;87.92
57102;BME280;42982;54.558;18.508;2023-08-07T04:04:02;98723.75;;;15.97;87.87
57102;BME280;42982;54.558;18.508;2023-08-07T04:05:05;98725.03;;;16.03;87.96
57102;BME280;42982;54.558;18.508;2023-08-07T04:06:08;98733.22;;;16.07;88.19
57102;BME280;42982;54.558;18.508;2023-08-07T04:07:11;98728.19;;;16.05;88.26
57102;BME280;42982;54.558;18.508;2023-08-07T04:08:13;98733.09;;;15.99;87.88
57102;BME280;42982;54.558;18.508;2023-08-07T04:09:14;98735.81;;;15.99;87.99
57102;BME280;42982;54.558;18.508;2023-08-07T04:10:17;98718.56;;;15.88;88.01
57102;BME280;42982;54.558;18.508;2023-08-07T04:11:20;98733.69;;;15.89;87.95
57102;BME280;42982;54.558;18.508;2023-08-07T04:12:22;98734.47;;;15.90;88.36
57102;BME280;42982;54.558;18.508;2023-08-07T04:13:23;98728.69;;;15.91;88.85
57102;BME280;42982;54.558;18.508;2023-08-07T04:14:25;98717.44;;;15.89;88.56
57102;BME280;42982;54.558;18.508;2023-08-07T04:15:27;98715.84;;;15.88;88.68
57102;BME280;42982;54.558;18.508;2023-08-07T04:16:30;98715.44;;;15.86;88.57
57102;BME280;42982;54.558;18.508;2023-08-07T04:17:35;98720.50;;;15.88;88.74
57102;BME280;42982;54.558;18.508;2023-08-07T04:18:37;98720.50;;;15.88;88.78
57102;BME280;42982;54.558;18.508;2023-08-07T04:19:43;98723.63;;;15.90;88.64
57102;BME280;42982;54.558;18.508;2023-08-07T04:20:51;98713.56;;;15.90;88.90
57102;BME280;42982;54.558;18.508;2023-08-07T04:21:54;98715.19;;;15.95;88.38
57102;BME280;42982;54.558;18.508;2023-08-07T04:22:56;98699.81;;;15.99;88.57
57102;BME280;42982;54.558;18.508;2023-08-07T04:23:59;98702.91;;;16.01;88.74
57102;BME280;42982;54.558;18.508;2023-08-07T04:25:05;98696.44;;;16.06;88.69
57102;BME280;42982;54.558;18.508;2023-08-07T04:26:08;98693.78;;;16.09;88.40
57102;BME280;42982;54.558;18.508;2023-08-07T04:27:15;98711.66;;;16.14;88.05
57102;BME280;42982;54.558;18.508;2023-08-07T04:28:17;98701.69;;;16.18;88.03
57102;BME280;42982;54.558;18.508;2023-08-07T04:29:21;98715.34;;;16.25;88.06
57102;BME280;42982;54.558;18.508;2023-08-07T04:30:23;98705.66;;;16.24;87.44
57102;BME280;42982;54.558;18.508;2023-08-07T04:31:30;98720.84;;;16.29;87.26
57102;BME280;42982;54.558;18.508;2023-08-07T04:32:32;98708.94;;;16.33;86.98
57102;BME280;42982;54.558;18.508;2023-08-07T04:33:33;98710.97;;;16.40;87.17
57102;BME280;42982;54.558;18.508;2023-08-07T04:34:38;98712.19;;;16.42;86.92
57102;BME280;42982;54.558;18.508;2023-08-07T04:35:40;98709.94;;;16.48;86.76
57102;BME280;42982;54.558;18.508;2023-08-07T04:36:42;98718.19;;;16.55;86.69
57102;BME280;42982;54.558;18.508;2023-08-07T04:37:46;98719.38;;;16.58;86.33
57102;BME280;42982;54.558;18.508;2023-08-07T04:38:48;98732.16;;;16.57;86.02
57102;BME280;42982;54.558;18.508;2023-08-07T04:39:49;98719.31;;;16.54;85.48
57102;BME280;42982;54.558;18.508;2023-08-07T04:40:51;98725.47;;;16.51;85.43
57102;BME280;42982;54.558;18.508;2023-08-07T04:41:53;98728.97;;;16.52;85.60
57102;BME280;42982;54.558;18.508;2023-08-07T04:42:54;98720.44;;;16.50;85.13
57102;BME280;42982;54.558;18.508;2023-08-07T04:43:57;98728.19;;;16.51;84.52
57102;BME280;42982;54.558;18.508;2023-08-07T04:45:01;98725.97;;;16.57;84.55
57102;BME280;42982;54.558;18.508;2023-08-07T04:46:06;98724.88;;;16.61;84.67
57102;BME280;42982;54.558;18.508;2023-08-07T04:47:11;98736.53;;;16.62;84.27
57102;BME280;42982;54.558;18.508;2023-08-07T04:48:13;98729.66;;;16.68;84.57
57102;BME280;42982;54.558;18.508;2023-08-07T04:49:15;98736.34;;;16.74;84.20
57102;BME280;42982;54.558;18.508;2023-08-07T04:50:18;98732.03;;;16.73;83.46
57102;BME280;42982;54.558;18.508;2023-08-07T04:51:28;98734.91;;;16.80;83.78
57102;BME280;42982;54.558;18.508;2023-08-07T04:52:35;98737.25;;;16.82;83.16
57102;BME280;42982;54.558;18.508;2023-08-07T04:53:39;98731.38;;;16.80;82.60
57102;BME280;42982;54.558;18.508;2023-08-07T04:54:40;98740.69;;;16.79;82.58
57102;BME280;42982;54.558;18.508;2023-08-07T04:55:42;98738.34;;;16.77;82.02
57102;BME280;42982;54.558;18.508;2023-08-07T04:56:44;98748.03;;;16.78;81.87
57102;BME280;42982;54.558;18.508;2023-08-07T04:57:46;98761.63;;;16.78;82.16
57102;BME280;42982;54.558;18.508;2023-08-07T04:58:47;98760.75;;;16.74;82.31
57102;BME280;42982;54.558;18.508;2023-08-07T04:59:51;98754.53;;;16.74;82.27
57102;BME280;42982;54.558;18.508;2023-08-07T05:00:55;98757.59;;;16.72;82.13
57102;BME280;42982;54.558;18.508;2023-08-07T05:01:57;98752.19;;;16.72;82.18
57102;BME280;42982;54.558;18.508;2023-08-07T05:02:59;98752.31;;;16.79;82.23
57102;BME280;42982;54.558;18.508;2023-08-07T05:04:02;98750.03;;;16.81;82.35
57102;BME280;42982;54.558;18.508;2023-08-07T05:05:08;98751.66;;;16.86;82.41
57102;BME280;42982;54.558;18.508;2023-08-07T05:06:11;98748.56;;;16.87;82.02
57102;BME280;42982;54.558;18.508;2023-08-07T05:07:13;98756.34;;;16.89;81.81
57102;BME280;42982;54.558;18.508;2023-08-07T05:08:16;98749.34;;;16.88;81.63
57102;BME280;42982;54.558;18.508;2023-08-07T05:09:18;98745.00;;;16.83;81.51
57102;BME280;42982;54.558;18.508;2023-08-07T05:10:20;98750.03;;;16.81;81.75
57102;BME280;42982;54.558;18.508;2023-08-07T05:11:23;98749.03;;;16.70;81.00
57102;BME280;42982;54.558;18.508;2023-08-07T05:12:27;98737.59;;;16.57;81.05
57102;BME280;42982;54.558;18.508;2023-08-07T05:13:31;98745.38;;;16.59;81.38
57102;BME280;42982;54.558;18.508;2023-08-07T05:14:32;98751.66;;;16.63;81.26
57102;BME280;42982;54.558;18.508;2023-08-07T05:15:34;98754.78;;;16.65;81.40
57102;BME280;42982;54.558;18.508;2023-08-07T05:16:36;98750.50;;;16.64;81.67
57102;BME280;42982;54.558;18.508;2023-08-07T05:17:40;98749.34;;;16.65;81.62
57102;BME280;42982;54.558;18.508;2023-08-07T05:18:44;98745.13;;;16.67;81.85
57102;BME280;42982;54.558;18.508;2023-08-07T05:19:45;98749.41;;;16.68;81.68
57102;BME280;42982;54.558;18.508;2023-08-07T05:20:48;98737.06;;;16.71;81.61
57102;BME280;42982;54.558;18.508;2023-08-07T05:21:52;98745.59;;;16.73;81.51
57102;BME280;42982;54.558;18.508;2023-08-07T05:22:54;98749.56;;;16.76;81.22
57102;BME280;42982;54.558;18.508;2023-08-07T05:23:59;98749.56;;;16.76;81.23
57102;BME280;42982;54.558;18.508;2023-08-07T05:25:04;98747.63;;;16.76;80.95
57102;BME280;42982;54.558;18.508;2023-08-07T05:26:11;98744.91;;;16.76;80.81
57102;BME280;42982;54.558;18.508;2023-08-07T05:27:13;98749.97;;;16.78;80.91
57102;BME280;42982;54.558;18.508;2023-08-07T05:28:17;98742.88;;;16.73;80.38
57102;BME280;42982;54.558;18.508;2023-08-07T05:29:19;98754.91;;;16.72;80.39
57102;BME280;42982;54.558;18.508;2023-08-07T05:30:21;98742.88;;;16.73;80.60
57102;BME280;42982;54.558;18.508;2023-08-07T05:31:25;98742.84;;;16.69;80.72
57102;BME280;42982;54.558;18.508;2023-08-07T05:32:33;98743.25;;;16.72;80.95
57102;BME280;42982;54.558;18.508;2023-08-07T05:33:40;98741.28;;;16.68;80.48
57102;BME280;42982;54.558;18.508;2023-08-07T05:34:45;98746.22;;;16.63;80.19